Airfield :
LOGIN :

Register | Disclaimer

   EN    FR    IT 

 










Legend :    VFR   Marginal VFR   IFR   Intensive IFR   Very Intensive IFR
Visi :
Ceiling :
>= 8 km
>= 3000ft
5 to 8 km
1000 to 3000 ft
1500m to 5 km
500 to 1000 ft
800 to 1500m
200 to 500 ft
< 800m
< 200 ft
Symbols :   Thunderstorms  Fog  Heavy snow  Heavy precipitations  Wind > 20 kt
SIGMETs :     Misc.  Thunderstorms  Icing  Turbulence  Mountain Waves  Volcanic Ashes







- Airport Elevation : 160 ft
- IATA code : FMO


EDDG - Münster Osnabrück Int.

CURRENT METAR :
  • 210920Z 22008KT 9999 FEW026 12/07 Q1034 NOSIG

EXPIRED METARs :
  • 210850Z 22006KT 180V250 9999 FEW026 12/06 Q1034 NOSIG
  • 210820Z 22005KT 170V270 9999 SCT026 11/07 Q1034 NOSIG
  • 210750Z 19005KT 160V220 9999 SCT028 10/06 Q1034 NOSIG
  • 210720Z 20004KT 170V230 9999 BKN029 10/06 Q1034 NOSIG
  • 210650Z VRB02KT 9000 BKN028 09/06 Q1034 NOSIG
  • 210620Z 17004KT 130V200 8000 BKN026 09/06 Q1034 NOSIG

TAF TAF EDDG
Valid from the 21 at 06:00 until the 22 at 06:00 UTC


210500Z 2106/2206 20004KT 4000 BR BKN025
PROB30
TEMPO 2106/2109 BKN010
BECMG 2106/2109 9999
BECMG 2110/2113 26007KT
BECMG 2116/2119 VRB02KT
BECMG 2120/2123 2500 BR
BECMG 2123/2202 0500 FG BKN010
PROB30
TEMPO 2201/2206 0300 FG BKN002
No reported NOTAMs for that airfield.



MET'MAP, your aeronautical weather chart ! - Copyright ORBIFLY December 2007 - Disclaimer

ORBIFLY MET'MAP TEAM :

Programming & Development : Alexandra Zaïnal
Concept & Development : Baudouin d'Aumeries
Co-Development & Prog : Marc-Olivier Méhu
Technical & hardware support : Manuel Goepfert

Contact : metmap@orbifly.com




SOURCES & CREDITS :

   NOAA